Time,TemperatureF,DewpointF,PressureIn,WindDirection,WindDirectionDegrees,WindSpeedMPH,WindSpeedGustMPH,Humidity,HourlyPrecipIn,Conditions,Clouds,dailyrainin,SoftwareType,DateUTC
2013-06-07 00:00:00,59.5,58.0,30.05,East,90,0.0,238.7,95,5.87,,,0.00,VWS V14.01,2013-06-07 04:00:00,
2013-06-07 00:01:00,59.9,58.2,30.06,East,90,0.0,238.7,94,5.85,,,0.21,VWS V14.01,2013-06-07 04:01:00,
2013-06-07 00:02:00,59.9,58.2,30.06,East,90,0.0,238.7,94,5.85,,,0.21,VWS V14.01,2013-06-07 04:02:00,
2013-06-07 00:03:00,60.0,58.3,30.06,East,90,0.0,238.7,94,5.85,,,0.21,VWS V14.01,2013-06-07 04:03:00,
2013-06-07 00:04:00,59.5,58.0,30.04,East,90,0.0,238.7,95,5.87,,,0.00,VWS V14.01,2013-06-07 04:04:00,
2013-06-07 00:05:00,59.6,58.1,30.04,East,90,0.0,238.7,95,5.87,,,0.00,VWS V14.01,2013-06-07 04:05:00,
2013-06-07 00:06:00,59.6,58.2,30.04,East,90,0.0,238.7,95,5.87,,,0.00,VWS V14.01,2013-06-07 04:06:00,
2013-06-07 00:07:00,59.5,58.1,30.04,East,90,0.0,238.7,95,5.87,,,0.00,VWS V14.01,2013-06-07 04:07:00,
2013-06-07 00:08:00,59.9,58.3,30.06,East,90,0.0,238.7,94,5.86,,,0.22,VWS V14.01,2013-06-07 04:08:00,
2013-06-07 00:09:00,59.5,58.1,30.03,East,90,0.0,238.7,95,5.87,,,0.00,VWS V14.01,2013-06-07 04:09:00,
2013-06-07 00:11:00,59.9,58.3,30.05,East,90,0.0,238.7,94,5.86,,,0.22,VWS V14.01,2013-06-07 04:11:00,
2013-06-07 00:12:00,59.5,58.0,30.03,East,90,0.0,238.7,95,5.87,,,0.00,VWS V14.01,2013-06-07 04:12:00,
2013-06-07 00:13:00,59.5,58.1,30.03,East,90,0.0,238.7,95,5.87,,,0.00,VWS V14.01,2013-06-07 04:13:00,
2013-06-07 00:14:00,59.5,58.1,30.03,East,90,0.0,238.7,95,5.87,,,0.00,VWS V14.01,2013-06-07 04:14:00,
2013-06-07 00:15:00,59.6,58.2,30.03,East,90,0.0,238.7,95,5.87,,,0.00,VWS V14.01,2013-06-07 04:15:00,
2013-06-07 00:16:00,59.5,58.1,30.03,East,90,0.0,238.7,95,5.87,,,0.00,VWS V14.01,2013-06-07 04:16:00,
2013-06-07 00:17:00,59.8,58.2,30.05,East,90,0.0,238.7,94,5.86,,,0.22,VWS V14.01,2013-06-07 04:17:00,
2013-06-07 00:18:00,59.5,58.1,30.03,East,90,0.0,238.7,95,5.87,,,0.00,VWS V14.01,2013-06-07 04:18:00,
2013-06-07 00:19:00,59.5,58.1,30.03,East,90,0.0,238.7,95,5.87,,,0.00,VWS V14.01,2013-06-07 04:19:00,
2013-06-07 00:20:00,59.7,58.1,30.05,East,90,0.0,238.7,94,5.86,,,0.22,VWS V14.01,2013-06-07 04:20:00,
2013-06-07 00:21:00,59.4,58.0,30.03,East,90,0.0,238.7,95,5.88,,,0.01,VWS V14.01,2013-06-07 04:21:00,
2013-06-07 00:22:00,59.5,58.1,30.02,East,90,0.0,238.7,95,5.88,,,0.01,VWS V14.01,2013-06-07 04:22:00,
2013-06-07 00:23:00,59.5,58.1,30.02,East,90,0.0,238.7,95,5.88,,,0.01,VWS V14.01,2013-06-07 04:23:00,
2013-06-07 00:24:00,59.4,58.1,30.02,East,90,0.0,238.7,95,5.88,,,0.01,VWS V14.01,2013-06-07 04:24:00,
2013-06-07 00:25:00,59.7,58.2,30.06,East,90,0.0,238.7,95,5.86,,,0.22,VWS V14.01,2013-06-07 04:25:00,
2013-06-07 00:26:00,59.5,58.2,30.03,East,90,0.0,238.7,95,5.88,,,0.01,VWS V14.01,2013-06-07 04:26:00,
2013-06-07 00:27:00,59.5,58.1,30.02,East,90,0.0,238.7,95,5.88,,,0.01,VWS V14.01,2013-06-07 04:27:00,
2013-06-07 00:28:00,59.5,58.1,30.02,East,90,0.0,238.7,95,5.88,,,0.01,VWS V14.01,2013-06-07 04:28:00,
2013-06-07 00:29:00,59.5,58.1,30.02,East,90,0.0,238.7,95,5.88,,,0.01,VWS V14.01,2013-06-07 04:29:00,
2013-06-07 00:30:00,59.6,58.1,30.06,East,90,0.0,238.7,95,5.86,,,0.22,VWS V14.01,2013-06-07 04:30:00,
2013-06-07 00:31:00,59.5,58.2,30.02,East,90,0.0,238.7,95,5.88,,,0.01,VWS V14.01,2013-06-07 04:31:00,
2013-06-07 00:32:00,59.4,58.1,30.02,East,90,0.0,238.7,95,5.88,,,0.01,VWS V14.01,2013-06-07 04:32:00,
2013-06-07 00:34:00,59.5,58.2,30.02,East,90,0.0,238.7,95,5.88,,,0.01,VWS V14.01,2013-06-07 04:34:00,
2013-06-07 00:35:00,59.5,58.2,30.02,East,90,0.0,238.7,96,5.88,,,0.01,VWS V14.01,2013-06-07 04:35:00,
2013-06-07 00:36:00,59.7,58.2,30.05,East,90,0.0,238.7,95,5.86,,,0.22,VWS V14.01,2013-06-07 04:36:00,
2013-06-07 00:37:00,59.5,58.2,30.02,East,90,0.0,238.7,95,5.88,,,0.01,VWS V14.01,2013-06-07 04:37:00,
2013-06-07 00:38:00,59.4,58.1,30.02,East,90,0.0,238.7,96,5.88,,,0.01,VWS V14.01,2013-06-07 04:38:00,
2013-06-07 00:39:00,59.5,58.2,30.02,East,90,0.0,238.7,96,5.88,,,0.01,VWS V14.01,2013-06-07 04:39:00,
2013-06-07 00:40:00,59.4,58.1,30.02,East,90,0.0,238.7,96,5.88,,,0.01,VWS V14.01,2013-06-07 04:40:00,
2013-06-07 00:41:00,59.6,58.1,30.05,East,90,0.0,238.7,95,5.86,,,0.22,VWS V14.01,2013-06-07 04:41:00,
2013-06-07 00:42:00,59.5,58.2,30.02,East,90,0.0,238.7,95,5.88,,,0.01,VWS V14.01,2013-06-07 04:42:00,
2013-06-07 00:43:00,59.4,58.1,30.02,East,90,0.0,238.7,95,5.88,,,0.01,VWS V14.01,2013-06-07 04:43:00,
2013-06-07 00:44:00,59.5,58.2,30.02,East,90,0.0,238.7,95,5.88,,,0.01,VWS V14.01,2013-06-07 04:44:00,
2013-06-07 00:45:00,59.4,58.1,30.02,East,90,0.0,238.7,95,5.88,,,0.01,VWS V14.01,2013-06-07 04:45:00,
2013-06-07 00:46:00,59.5,58.0,30.05,East,90,0.0,238.7,95,5.87,,,0.23,VWS V14.01,2013-06-07 04:46:00,
2013-06-07 00:47:00,59.5,58.2,30.02,East,90,0.0,238.7,95,5.88,,,0.01,VWS V14.01,2013-06-07 04:47:00,
2013-06-07 00:48:00,59.4,58.1,30.02,East,90,0.0,238.7,95,5.88,,,0.01,VWS V14.01,2013-06-07 04:48:00,
2013-06-07 00:49:00,59.5,58.2,30.02,East,90,0.0,238.7,95,5.88,,,0.01,VWS V14.01,2013-06-07 04:49:00,
2013-06-07 00:50:00,59.5,58.2,30.02,East,90,0.0,238.7,96,5.88,,,0.01,VWS V14.01,2013-06-07 04:50:00,
2013-06-07 00:51:00,59.5,58.0,30.05,East,90,0.0,238.7,95,5.87,,,0.23,VWS V14.01,2013-06-07 04:51:00,
2013-06-07 00:52:00,59.5,58.2,30.02,SSW,202,0.0,238.7,95,5.88,,,0.01,VWS V14.01,2013-06-07 04:52:00,
2013-06-07 00:53:00,59.4,58.1,30.02,SSW,202,0.0,238.7,95,5.88,,,0.01,VWS V14.01,2013-06-07 04:53:00,
2013-06-07 00:54:00,59.5,58.2,30.02,East,89,0.0,238.7,95,5.88,,,0.01,VWS V14.01,2013-06-07 04:54:00,
2013-06-07 00:55:00,59.4,58.1,30.02,East,89,0.0,238.7,95,5.88,,,0.01,VWS V14.01,2013-06-07 04:55:00,
2013-06-07 00:56:00,59.5,58.0,30.04,East,90,0.0,238.7,95,5.87,,,0.23,VWS V14.01,2013-06-07 04:56:00,
2013-06-07 00:57:00,59.5,58.2,30.02,East,89,0.0,238.7,95,5.88,,,0.01,VWS V14.01,2013-06-07 04:57:00,
2013-06-07 00:58:00,59.4,58.1,30.02,East,89,0.0,238.7,95,5.88,,,0.01,VWS V14.01,2013-06-07 04:58:00,
2013-06-07 00:59:00,59.4,58.1,30.02,East,89,0.0,238.7,96,5.88,,,0.01,VWS V14.01,2013-06-07 04:59:00,
2013-06-07 01:00:00,59.4,58.1,30.01,East,89,0.0,238.7,96,5.88,,,0.01,VWS V14.01,2013-06-07 05:00:00,
2013-06-07 01:01:00,59.4,58.1,30.02,East,89,0.0,238.7,96,5.88,,,0.01,VWS V14.01,2013-06-07 05:01:00,
2013-06-07 01:02:00,59.5,58.2,30.02,East,89,0.0,238.7,96,5.88,,,0.01,VWS V14.01,2013-06-07 05:02:00,
2013-06-07 01:03:00,59.4,58.2,30.01,East,89,0.0,238.7,96,5.88,,,0.01,VWS V14.01,2013-06-07 05:03:00,
2013-06-07 01:04:00,59.4,58.2,30.01,East,89,0.0,238.7,96,5.88,,,0.01,VWS V14.01,2013-06-07 05:04:00,
2013-06-07 01:05:00,59.4,58.2,30.01,East,89,0.0,238.7,96,5.88,,,0.01,VWS V14.01,2013-06-07 05:05:00,
2013-06-07 01:06:00,59.5,58.2,30.01,East,89,0.0,238.7,96,5.88,,,0.01,VWS V14.01,2013-06-07 05:06:00,
2013-06-07 01:07:00,59.5,58.3,30.01,East,89,0.0,238.7,96,5.88,,,0.01,VWS V14.01,2013-06-07 05:07:00,
2013-06-07 01:08:00,59.4,58.2,30.01,East,89,0.0,238.7,96,5.88,,,0.01,VWS V14.01,2013-06-07 05:08:00,
2013-06-07 01:09:00,59.4,58.2,30.01,East,89,0.0,238.7,96,5.88,,,0.01,VWS V14.01,2013-06-07 05:09:00,
2013-06-07 01:10:00,59.4,58.2,30.01,East,89,0.0,238.7,96,5.88,,,0.01,VWS V14.01,2013-06-07 05:10:00,
2013-06-07 01:11:00,59.4,58.2,30.01,East,89,0.0,238.7,96,5.88,,,0.01,VWS V14.01,2013-06-07 05:11:00,
2013-06-07 01:12:00,59.4,58.2,30.01,East,89,0.0,238.7,96,5.88,,,0.01,VWS V14.01,2013-06-07 05:12:00,
2013-06-07 01:13:00,59.5,58.3,30.01,East,89,0.0,238.7,96,5.88,,,0.01,VWS V14.01,2013-06-07 05:13:00,
2013-06-07 01:14:00,59.5,58.3,30.01,East,89,0.0,238.7,96,5.88,,,0.01,VWS V14.01,2013-06-07 05:14:00,
2013-06-07 01:15:00,59.5,58.3,30.01,East,89,0.0,238.7,96,5.88,,,0.01,VWS V14.01,2013-06-07 05:15:00,
2013-06-07 01:16:00,59.5,58.3,30.01,East,89,0.0,238.7,96,5.88,,,0.01,VWS V14.01,2013-06-07 05:16:00,
2013-06-07 01:17:00,59.5,58.3,30.01,East,89,0.0,238.7,96,5.88,,,0.01,VWS V14.01,2013-06-07 05:17:00,
2013-06-07 01:18:00,59.5,58.3,30.01,East,89,0.0,238.7,96,5.88,,,0.01,VWS V14.01,2013-06-07 05:18:00,
2013-06-07 01:21:00,59.5,58.4,30.01,East,89,0.0,238.7,96,5.88,,,0.01,VWS V14.01,2013-06-07 05:21:00,
2013-06-07 01:24:00,59.5,58.3,30.01,East,89,0.0,238.7,96,5.88,,,0.01,VWS V14.01,2013-06-07 05:24:00,
2013-06-07 01:26:00,59.5,58.3,30.01,East,89,0.0,238.7,96,5.88,,,0.01,VWS V14.01,2013-06-07 05:26:00,
2013-06-07 01:27:00,59.5,58.3,30.00,East,89,0.0,238.7,96,5.88,,,0.01,VWS V14.01,2013-06-07 05:27:00,
2013-06-07 01:28:00,59.5,58.3,30.01,East,89,0.0,238.7,96,5.88,,,0.01,VWS V14.01,2013-06-07 05:28:00,
2013-06-07 01:29:00,59.6,58.4,30.01,East,89,0.0,238.7,96,5.88,,,0.01,VWS V14.01,2013-06-07 05:29:00,
2013-06-07 01:30:00,59.5,58.3,30.01,East,89,0.0,238.7,96,5.88,,,0.01,VWS V14.01,2013-06-07 05:30:00,
2013-06-07 01:32:00,59.6,58.4,30.01,East,89,0.0,238.7,96,5.88,,,0.01,VWS V14.01,2013-06-07 05:32:00,
2013-06-07 01:33:00,59.6,58.4,30.01,East,89,0.0,238.7,96,5.88,,,0.01,VWS V14.01,2013-06-07 05:33:00,
2013-06-07 01:34:00,59.6,58.4,30.01,East,89,0.0,238.7,96,5.88,,,0.01,VWS V14.01,2013-06-07 05:34:00,
2013-06-07 01:37:00,59.6,58.4,30.01,East,89,0.0,238.7,96,5.88,,,0.01,VWS V14.01,2013-06-07 05:37:00,
2013-06-07 01:39:00,59.6,58.4,30.01,East,89,0.0,238.7,96,5.88,,,0.01,VWS V14.01,2013-06-07 05:39:00,
2013-06-07 01:40:00,59.6,58.4,30.01,East,89,0.0,238.7,96,5.88,,,0.01,VWS V14.01,2013-06-07 05:40:00,
2013-06-07 01:41:00,59.6,58.4,30.01,East,89,0.0,238.7,96,5.88,,,0.01,VWS V14.01,2013-06-07 05:41:00,
2013-06-07 01:42:00,59.6,58.4,30.01,East,89,0.0,238.7,96,5.88,,,0.01,VWS V14.01,2013-06-07 05:42:00,
2013-06-07 01:43:00,59.6,58.5,30.01,East,89,0.0,238.7,96,5.88,,,0.01,VWS V14.01,2013-06-07 05:43:00,
2013-06-07 01:46:00,59.6,58.4,30.01,East,89,0.0,238.7,96,5.89,,,0.02,VWS V14.01,2013-06-07 05:46:00,
2013-06-07 01:48:00,59.7,58.5,30.01,East,89,0.0,238.7,96,5.89,,,0.02,VWS V14.01,2013-06-07 05:48:00,
2013-06-07 01:49:00,59.6,58.4,30.01,East,89,0.0,238.7,96,5.89,,,0.02,VWS V14.01,2013-06-07 05:49:00,
2013-06-07 01:54:00,59.7,58.5,30.00,East,89,0.0,238.7,96,5.89,,,0.02,VWS V14.01,2013-06-07 05:54:00,
2013-06-07 01:57:00,59.7,58.5,30.00,East,89,0.0,238.7,96,5.89,,,0.02,VWS V14.01,2013-06-07 05:57:00,
2013-06-07 01:59:00,59.7,58.5,30.00,East,89,0.0,238.7,96,5.90,,,0.03,VWS V14.01,2013-06-07 05:59:00,
2013-06-07 02:02:00,59.7,58.5,30.00,East,89,0.0,238.7,96,5.90,,,0.03,VWS V14.01,2013-06-07 06:02:00,
2013-06-07 02:06:00,59.6,58.5,30.00,East,89,0.0,238.7,96,5.90,,,0.03,VWS V14.01,2013-06-07 06:06:00,
2013-06-07 02:17:00,59.5,58.3,30.01,East,89,0.0,238.7,96,5.88,,,0.01,VWS V14.01,2013-06-07 06:17:00,
2013-06-07 02:22:00,59.5,58.3,30.01,East,89,0.0,238.7,96,5.88,,,0.01,VWS V14.01,2013-06-07 06:22:00,
2013-06-07 02:28:00,59.5,58.3,30.01,East,89,0.0,238.7,96,5.88,,,0.01,VWS V14.01,2013-06-07 06:28:00,
2013-06-07 02:34:00,59.6,58.4,30.01,East,89,0.0,238.7,96,5.88,,,0.01,VWS V14.01,2013-06-07 06:34:00,
2013-06-07 02:42:00,59.6,58.4,30.01,East,89,0.0,238.7,96,5.89,,,0.02,VWS V14.01,2013-06-07 06:42:00,
2013-06-07 02:47:00,59.7,58.5,30.01,East,89,0.0,238.7,96,5.89,,,0.02,VWS V14.01,2013-06-07 06:47:00,
2013-06-07 02:52:00,59.7,58.5,30.00,East,89,0.0,238.7,96,5.89,,,0.02,VWS V14.01,2013-06-07 06:52:00,
2013-06-07 02:58:00,59.7,58.5,30.00,East,89,0.0,238.7,96,5.90,,,0.03,VWS V14.01,2013-06-07 06:58:00,
2013-06-07 03:03:00,59.7,58.6,30.00,East,89,0.0,238.7,96,5.90,,,0.03,VWS V14.01,2013-06-07 07:03:00,
2013-06-07 03:08:00,59.7,58.6,30.00,East,89,0.0,238.7,96,5.90,,,0.03,VWS V14.01,2013-06-07 07:08:00,
2013-06-07 03:13:00,59.8,58.7,30.00,East,89,0.0,238.7,96,5.90,,,0.03,VWS V14.01,2013-06-07 07:13:00,
2013-06-07 03:18:00,59.8,58.7,30.00,East,89,0.0,238.7,96,5.90,,,0.03,VWS V14.01,2013-06-07 07:18:00,
2013-06-07 03:24:00,59.8,58.7,30.00,East,89,0.0,238.7,96,5.91,,,0.04,VWS V14.01,2013-06-07 07:24:00,
2013-06-07 03:29:00,59.8,58.7,29.99,East,89,0.0,238.7,96,5.91,,,0.04,VWS V14.01,2013-06-07 07:29:00,
2013-06-07 03:34:00,59.7,58.6,29.99,East,89,0.0,238.7,96,5.91,,,0.04,VWS V14.01,2013-06-07 07:34:00,
2013-06-07 03:39:00,59.8,58.7,29.99,East,89,0.0,238.7,96,5.92,,,0.05,VWS V14.01,2013-06-07 07:39:00,
2013-06-07 03:44:00,59.8,58.7,30.00,East,89,0.0,238.7,96,5.92,,,0.05,VWS V14.01,2013-06-07 07:44:00,
2013-06-07 03:50:00,59.7,58.6,29.99,East,89,0.0,238.7,96,5.93,,,0.06,VWS V14.01,2013-06-07 07:50:00,
2013-06-07 03:55:00,59.7,58.6,29.99,East,89,0.0,238.7,96,5.94,,,0.07,VWS V14.01,2013-06-07 07:55:00,
2013-06-07 04:00:00,59.8,58.7,29.99,East,89,0.0,238.7,96,5.94,,,0.07,VWS V14.01,2013-06-07 08:00:00,
2013-06-07 04:05:00,59.7,58.7,29.99,East,89,0.0,238.7,96,5.95,,,0.08,VWS V14.01,2013-06-07 08:05:00,
2013-06-07 04:11:00,59.7,58.6,29.99,East,89,0.0,238.7,96,5.96,,,0.09,VWS V14.01,2013-06-07 08:11:00,
2013-06-07 04:16:00,59.7,58.6,29.99,East,89,0.0,238.7,96,5.96,,,0.09,VWS V14.01,2013-06-07 08:16:00,
2013-06-07 04:21:00,59.6,58.5,29.99,East,89,0.0,238.7,96,5.97,,,0.10,VWS V14.01,2013-06-07 08:21:00,
2013-06-07 04:26:00,59.5,58.4,29.98,East,89,0.0,238.7,96,5.97,,,0.10,VWS V14.01,2013-06-07 08:26:00,
2013-06-07 04:32:00,59.5,58.4,29.98,East,89,0.0,238.7,96,5.97,,,0.10,VWS V14.01,2013-06-07 08:32:00,
2013-06-07 04:37:00,59.5,58.5,29.99,East,89,0.0,238.7,96,5.98,,,0.11,VWS V14.01,2013-06-07 08:37:00,
2013-06-07 04:42:00,59.4,58.3,29.98,ENE,68,0.0,238.7,96,5.99,,,0.12,VWS V14.01,2013-06-07 08:42:00,
2013-06-07 04:47:00,59.4,58.4,29.98,ENE,68,0.0,238.7,96,6.00,,,0.13,VWS V14.01,2013-06-07 08:47:00,
2013-06-07 04:53:00,59.4,58.3,29.98,ENE,68,0.0,238.7,96,6.01,,,0.14,VWS V14.01,2013-06-07 08:53:00,
2013-06-07 04:58:00,59.4,58.4,29.98,ENE,68,0.0,238.7,96,6.02,,,0.15,VWS V14.01,2013-06-07 08:58:00,
2013-06-07 05:03:00,59.3,58.3,29.98,ENE,68,0.0,238.7,96,6.02,,,0.15,VWS V14.01,2013-06-07 09:03:00,
2013-06-07 05:08:00,59.3,58.3,29.98,ENE,68,0.0,238.7,96,6.03,,,0.16,VWS V14.01,2013-06-07 09:08:00,
2013-06-07 05:14:00,59.3,58.3,29.98,ENE,68,0.0,238.7,96,6.03,,,0.16,VWS V14.01,2013-06-07 09:14:00,
2013-06-07 05:20:00,59.2,58.2,29.98,ENE,68,0.0,238.7,97,6.04,,,0.17,VWS V14.01,2013-06-07 09:20:00,
2013-06-07 05:25:00,59.2,58.2,29.98,East,90,0.0,238.7,96,6.05,,,0.18,VWS V14.01,2013-06-07 09:25:00,
2013-06-07 05:31:00,59.1,58.1,29.98,East,90,0.0,238.7,96,6.06,,,0.19,VWS V14.01,2013-06-07 09:31:00,
2013-06-07 05:37:00,59.0,58.0,29.98,East,86,0.0,238.7,96,6.06,,,0.19,VWS V14.01,2013-06-07 09:37:00,
2013-06-07 05:42:00,58.9,57.9,29.97,East,93,0.0,238.7,97,6.06,,,0.19,VWS V14.01,2013-06-07 09:42:00,
2013-06-07 05:48:00,58.9,57.9,29.98,ENE,77,0.0,238.7,96,6.07,,,0.20,VWS V14.01,2013-06-07 09:48:00,
2013-06-07 05:53:00,58.8,57.8,29.98,ENE,77,3.5,238.7,97,6.07,,,0.20,VWS V14.01,2013-06-07 09:53:00,
2013-06-07 05:59:00,58.7,57.7,29.97,ENE,77,0.0,238.7,96,6.07,,,0.20,VWS V14.01,2013-06-07 09:59:00,
2013-06-07 06:04:00,58.7,57.7,29.97,ENE,77,0.0,238.7,96,6.07,,,0.20,VWS V14.01,2013-06-07 10:04:00,
2013-06-07 06:10:00,58.7,57.7,29.98,ENE,77,0.0,238.7,96,6.08,,,0.21,VWS V14.01,2013-06-07 10:10:00,
2013-06-07 06:15:00,58.6,57.6,29.98,ENE,60,0.0,238.7,96,6.08,,,0.21,VWS V14.01,2013-06-07 10:15:00,
2013-06-07 06:21:00,58.6,57.5,29.98,ENE,60,0.0,238.7,96,6.10,,,0.23,VWS V14.01,2013-06-07 10:21:00,
2013-06-07 06:27:00,58.4,57.3,29.98,East,89,0.0,238.7,96,6.12,,,0.25,VWS V14.01,2013-06-07 10:27:00,
2013-06-07 06:33:00,58.4,57.3,29.97,East,89,0.0,238.7,96,6.14,,,0.27,VWS V14.01,2013-06-07 10:33:00,
2013-06-07 06:38:00,58.3,57.2,29.98,ENE,65,0.0,238.7,96,6.16,,,0.29,VWS V14.01,2013-06-07 10:38:00,
2013-06-07 06:44:00,58.1,56.9,29.98,ENE,77,0.0,238.7,96,6.18,,,0.31,VWS V14.01,2013-06-07 10:44:00,
2013-06-07 06:49:00,58.0,56.9,29.98,ENE,77,0.0,238.7,96,6.18,,,0.31,VWS V14.01,2013-06-07 10:49:00,
2013-06-07 06:55:00,57.9,56.9,29.98,ENE,77,0.0,238.7,96,6.19,,,0.32,VWS V14.01,2013-06-07 10:55:00,
2013-06-07 07:00:00,57.9,56.8,29.98,NE,55,0.0,238.7,96,6.19,,,0.32,VWS V14.01,2013-06-07 11:00:00,
2013-06-07 07:05:00,57.8,56.6,29.98,NE,55,0.0,238.7,96,6.19,,,0.32,VWS V14.01,2013-06-07 11:05:00,
2013-06-07 07:10:00,57.6,56.4,29.97,NE,55,0.0,238.7,96,6.20,,,0.33,VWS V14.01,2013-06-07 11:10:00,
2013-06-07 07:16:00,57.5,56.3,29.97,NE,55,0.0,238.7,96,6.20,,,0.33,VWS V14.01,2013-06-07 11:16:00,
2013-06-07 07:21:00,57.4,56.3,29.97,NE,55,0.0,238.7,96,6.20,,,0.33,VWS V14.01,2013-06-07 11:21:00,
2013-06-07 07:26:00,57.3,56.2,29.97,NE,55,0.0,238.7,96,6.20,,,0.33,VWS V14.01,2013-06-07 11:26:00,
2013-06-07 07:31:00,57.4,56.3,29.97,NE,55,0.0,238.7,96,6.20,,,0.33,VWS V14.01,2013-06-07 11:31:00,
2013-06-07 07:37:00,57.4,56.3,29.97,NE,55,0.0,238.7,96,6.20,,,0.33,VWS V14.01,2013-06-07 11:37:00,
2013-06-07 07:42:00,57.4,56.3,29.97,NE,55,0.0,238.7,96,6.20,,,0.33,VWS V14.01,2013-06-07 11:42:00,
2013-06-07 07:47:00,57.4,56.3,29.97,ESE,110,0.0,238.7,96,6.20,,,0.33,VWS V14.01,2013-06-07 11:47:00,
2013-06-07 07:52:00,57.3,56.2,29.97,NE,44,0.0,238.7,96,6.20,,,0.33,VWS V14.01,2013-06-07 11:52:00,
2013-06-07 07:57:00,57.2,56.1,29.96,NE,44,0.0,238.7,96,6.20,,,0.33,VWS V14.01,2013-06-07 11:57:00,
2013-06-07 08:03:00,57.2,56.1,29.97,NE,44,0.0,238.7,96,6.20,,,0.33,VWS V14.01,2013-06-07 12:03:00,
2013-06-07 08:08:00,57.2,56.1,29.97,NE,44,0.0,238.7,96,6.20,,,0.33,VWS V14.01,2013-06-07 12:08:00,
2013-06-07 08:13:00,57.2,56.2,29.97,ENE,60,0.0,238.7,96,6.20,,,0.33,VWS V14.01,2013-06-07 12:13:00,
2013-06-07 08:18:00,57.1,56.2,29.97,ENE,60,0.0,238.7,97,6.21,,,0.34,VWS V14.01,2013-06-07 12:18:00,
2013-06-07 08:23:00,57.3,56.3,29.97,ENE,60,0.0,238.7,96,6.21,,,0.34,VWS V14.01,2013-06-07 12:23:00,
2013-06-07 08:29:00,57.3,56.3,29.97,ENE,60,0.0,238.7,96,6.21,,,0.34,VWS V14.01,2013-06-07 12:29:00,
2013-06-07 08:34:00,57.3,56.3,29.97,ENE,60,0.0,238.7,96,6.21,,,0.34,VWS V14.01,2013-06-07 12:34:00,
2013-06-07 08:39:00,57.4,56.4,29.97,ENE,60,0.0,238.7,97,6.21,,,0.34,VWS V14.01,2013-06-07 12:39:00,
2013-06-07 08:44:00,57.6,56.6,29.96,ENE,60,0.0,238.7,97,6.21,,,0.34,VWS V14.01,2013-06-07 12:44:00,
2013-06-07 08:50:00,57.7,56.7,29.97,ENE,60,0.0,238.7,97,6.21,,,0.34,VWS V14.01,2013-06-07 12:50:00,
2013-06-07 08:55:00,57.6,56.7,29.96,ENE,60,0.0,238.7,97,6.21,,,0.34,VWS V14.01,2013-06-07 12:55:00,
2013-06-07 09:00:00,57.8,56.8,29.96,East,80,0.0,238.7,97,6.21,,,0.34,VWS V14.01,2013-06-07 13:00:00,
2013-06-07 09:05:00,57.7,56.8,29.96,ENE,62,0.0,238.7,97,6.21,,,0.34,VWS V14.01,2013-06-07 13:05:00,
2013-06-07 09:10:00,57.9,57.0,29.96,ENE,62,0.0,238.7,97,6.21,,,0.34,VWS V14.01,2013-06-07 13:10:00,
2013-06-07 09:16:00,58.0,57.1,29.96,ENE,62,0.0,238.7,97,6.21,,,0.34,VWS V14.01,2013-06-07 13:16:00,
2013-06-07 09:21:00,58.0,57.1,29.96,ENE,62,0.0,238.7,97,6.21,,,0.34,VWS V14.01,2013-06-07 13:21:00,
2013-06-07 09:26:00,58.0,57.1,29.96,East,90,0.0,238.7,97,6.22,,,0.35,VWS V14.01,2013-06-07 13:26:00,
2013-06-07 09:31:00,58.1,57.2,29.96,East,90,0.0,238.7,97,6.22,,,0.35,VWS V14.01,2013-06-07 13:31:00,
2013-06-07 09:36:00,58.1,57.2,29.96,ENE,73,0.0,238.7,97,6.22,,,0.35,VWS V14.01,2013-06-07 13:36:00,
2013-06-07 09:42:00,58.3,57.5,29.96,ENE,73,0.0,238.7,97,6.22,,,0.35,VWS V14.01,2013-06-07 13:42:00,
2013-06-07 09:47:00,58.3,57.5,29.96,ENE,73,0.0,238.7,97,6.22,,,0.35,VWS V14.01,2013-06-07 13:47:00,
2013-06-07 09:52:00,58.4,57.6,29.96,SE,134,0.0,238.7,97,6.23,,,0.36,VWS V14.01,2013-06-07 13:52:00,
2013-06-07 09:57:00,58.6,57.8,29.95,SE,134,0.0,238.7,97,6.24,,,0.37,VWS V14.01,2013-06-07 13:57:00,
2013-06-07 10:02:00,58.7,57.9,29.95,SE,134,0.0,238.7,97,6.25,,,0.38,VWS V14.01,2013-06-07 14:02:00,
2013-06-07 10:08:00,58.8,58.0,29.95,SE,134,0.0,238.7,97,6.26,,,0.39,VWS V14.01,2013-06-07 14:08:00,
2013-06-07 10:13:00,58.9,58.1,29.95,SE,134,0.0,238.7,97,6.27,,,0.40,VWS V14.01,2013-06-07 14:13:00,
2013-06-07 10:18:00,59.0,58.2,29.95,SE,134,0.0,238.7,97,6.28,,,0.41,VWS V14.01,2013-06-07 14:18:00,
2013-06-07 10:23:00,59.1,58.3,29.95,ESE,107,0.0,238.7,97,6.29,,,0.42,VWS V14.01,2013-06-07 14:23:00,
2013-06-07 10:28:00,59.3,58.5,29.95,ESE,107,0.0,238.7,97,6.29,,,0.42,VWS V14.01,2013-06-07 14:28:00,
2013-06-07 10:34:00,59.3,58.5,29.95,ESE,107,0.0,238.7,97,6.30,,,0.43,VWS V14.01,2013-06-07 14:34:00,
2013-06-07 10:39:00,59.3,58.5,29.95,NE,34,0.0,238.7,97,6.31,,,0.44,VWS V14.01,2013-06-07 14:39:00,
2013-06-07 10:44:00,59.5,58.7,29.95,NE,34,0.0,238.7,97,6.32,,,0.45,VWS V14.01,2013-06-07 14:44:00,
2013-06-07 10:49:00,59.5,58.7,29.95,ENE,72,0.0,238.7,97,6.33,,,0.46,VWS V14.01,2013-06-07 14:49:00,
2013-06-07 10:54:00,59.6,58.8,29.94,ENE,72,0.0,238.7,97,6.33,,,0.46,VWS V14.01,2013-06-07 14:54:00,
2013-06-07 11:00:00,59.7,58.9,29.94,ENE,72,0.0,238.7,97,6.34,,,0.47,VWS V14.01,2013-06-07 15:00:00,
2013-06-07 11:05:00,59.9,59.1,29.94,ENE,72,0.0,238.7,97,6.34,,,0.47,VWS V14.01,2013-06-07 15:05:00,
2013-06-07 11:10:00,60.0,59.2,29.94,ENE,72,0.0,238.7,97,6.35,,,0.48,VWS V14.01,2013-06-07 15:10:00,
2013-06-07 11:15:00,60.1,59.3,29.94,ENE,72,0.0,238.7,97,6.36,,,0.49,VWS V14.01,2013-06-07 15:15:00,
2013-06-07 11:21:00,60.1,59.3,29.94,ENE,72,0.0,238.7,97,6.37,,,0.50,VWS V14.01,2013-06-07 15:21:00,
2013-06-07 11:26:00,60.2,59.4,29.94,ENE,72,0.0,238.7,97,6.38,,,0.51,VWS V14.01,2013-06-07 15:26:00,
2013-06-07 11:31:00,60.3,59.5,29.94,ENE,72,0.0,238.7,97,6.38,,,0.51,VWS V14.01,2013-06-07 15:31:00,
2013-06-07 11:36:00,60.4,59.6,29.94,ENE,72,0.0,238.7,97,6.40,,,0.53,VWS V14.01,2013-06-07 15:36:00,
2013-06-07 11:41:00,60.5,59.7,29.94,ENE,72,0.0,238.7,97,6.42,,,0.55,VWS V14.01,2013-06-07 15:41:00,
2013-06-07 11:47:00,60.6,59.9,29.94,ENE,72,0.0,238.7,97,6.44,,,0.57,VWS V14.01,2013-06-07 15:47:00,
2013-06-07 11:52:00,60.7,59.9,29.94,ENE,72,0.0,238.7,97,6.45,,,0.58,VWS V14.01,2013-06-07 15:52:00,
2013-06-07 11:57:00,60.9,60.2,29.94,ENE,72,0.0,238.7,97,6.46,,,0.59,VWS V14.01,2013-06-07 15:57:00,
2013-06-07 12:02:00,61.1,60.3,29.93,ENE,72,0.0,238.7,97,6.48,,,0.61,VWS V14.01,2013-06-07 16:02:00,
2013-06-07 12:08:00,61.3,60.6,29.93,ENE,72,0.0,238.7,97,6.50,,,0.63,VWS V14.01,2013-06-07 16:08:00,
2013-06-07 12:13:00,61.6,60.9,29.93,ENE,72,0.0,238.7,97,6.52,,,0.65,VWS V14.01,2013-06-07 16:13:00,
2013-06-07 12:18:00,61.8,61.0,29.93,ENE,72,0.0,238.7,97,6.53,,,0.66,VWS V14.01,2013-06-07 16:18:00,
2013-06-07 12:23:00,62.0,61.2,29.93,ENE,72,0.0,238.7,97,6.53,,,0.66,VWS V14.01,2013-06-07 16:23:00,
2013-06-07 12:28:00,62.1,61.2,29.92,ESE,111,0.0,238.7,97,6.54,,,0.67,VWS V14.01,2013-06-07 16:28:00,
2013-06-07 12:34:00,62.0,61.0,29.92,ESE,111,0.0,238.7,96,6.54,,,0.67,VWS V14.01,2013-06-07 16:34:00,
2013-06-07 12:39:00,61.9,60.8,29.92,SE,124,0.0,238.7,96,6.55,,,0.68,VWS V14.01,2013-06-07 16:39:00,
2013-06-07 12:45:00,61.8,60.7,29.92,ESE,111,0.0,238.7,96,6.55,,,0.68,VWS V14.01,2013-06-07 16:45:00,
2013-06-07 12:50:00,61.7,60.7,29.92,ESE,111,0.0,238.7,96,6.55,,,0.68,VWS V14.01,2013-06-07 16:50:00,
2013-06-07 12:55:00,61.8,60.8,29.92,ENE,68,0.0,238.7,97,6.56,,,0.69,VWS V14.01,2013-06-07 16:55:00,
2013-06-07 13:01:00,61.8,60.8,29.92,ENE,68,0.0,238.7,97,6.56,,,0.69,VWS V14.01,2013-06-07 17:01:00,
2013-06-07 13:06:00,61.8,60.8,29.92,NE,51,0.0,238.7,97,6.57,,,0.70,VWS V14.01,2013-06-07 17:06:00,
2013-06-07 13:11:00,61.8,60.8,29.91,NE,51,0.0,238.7,97,6.57,,,0.70,VWS V14.01,2013-06-07 17:11:00,
2013-06-07 13:17:00,61.9,60.9,29.91,NE,51,0.0,238.7,97,6.58,,,0.71,VWS V14.01,2013-06-07 17:17:00,
2013-06-07 13:22:00,62.1,61.1,29.91,NE,51,0.0,238.7,97,6.59,,,0.72,VWS V14.01,2013-06-07 17:22:00,
2013-06-07 13:27:00,61.9,60.8,29.91,ENE,60,0.0,238.7,96,6.59,,,0.72,VWS V14.01,2013-06-07 17:27:00,
2013-06-07 13:32:00,61.9,60.8,29.91,ENE,60,0.0,238.7,96,6.60,,,0.73,VWS V14.01,2013-06-07 17:32:00,
2013-06-07 13:37:00,61.9,60.8,29.91,ENE,60,0.0,238.7,96,6.60,,,0.73,VWS V14.01,2013-06-07 17:37:00,
2013-06-07 13:43:00,61.9,60.8,29.91,ENE,60,0.0,238.7,96,6.62,,,0.75,VWS V14.01,2013-06-07 17:43:00,
2013-06-07 13:48:00,61.9,60.9,29.91,ENE,60,0.0,238.7,96,6.63,,,0.76,VWS V14.01,2013-06-07 17:48:00,
2013-06-07 13:53:00,61.9,60.9,29.91,ENE,60,0.0,238.7,96,6.64,,,0.77,VWS V14.01,2013-06-07 17:53:00,
2013-06-07 13:58:00,61.9,60.9,29.91,ENE,60,0.0,238.7,96,6.65,,,0.78,VWS V14.01,2013-06-07 17:58:00,
2013-06-07 14:04:00,61.9,60.9,29.91,ESE,104,0.0,238.7,96,6.66,,,0.79,VWS V14.01,2013-06-07 18:04:00,
2013-06-07 14:09:00,61.9,60.9,29.91,ESE,122,0.0,238.7,96,6.67,,,0.80,VWS V14.01,2013-06-07 18:09:00,
2013-06-07 14:15:00,62.0,61.0,29.90,ESE,122,0.0,238.7,96,6.68,,,0.81,VWS V14.01,2013-06-07 18:15:00,
2013-06-07 14:20:00,62.1,61.1,29.90,ESE,122,0.0,238.7,96,6.69,,,0.82,VWS V14.01,2013-06-07 18:20:00,
2013-06-07 14:25:00,62.1,61.0,29.90,ENE,59,0.0,238.7,96,6.70,,,0.83,VWS V14.01,2013-06-07 18:25:00,
2013-06-07 14:31:00,62.0,60.9,29.90,ENE,59,0.0,238.7,96,6.71,,,0.84,VWS V14.01,2013-06-07 18:31:00,
2013-06-07 14:36:00,62.0,60.9,29.90,ENE,59,0.0,238.7,96,6.72,,,0.85,VWS V14.01,2013-06-07 18:36:00,
2013-06-07 14:41:00,62.0,60.9,29.90,ESE,108,0.0,238.7,96,6.73,,,0.86,VWS V14.01,2013-06-07 18:41:00,
2013-06-07 14:46:00,61.9,60.8,29.90,East,100,0.0,238.7,96,6.75,,,0.88,VWS V14.01,2013-06-07 18:46:00,
2013-06-07 14:52:00,62.0,61.0,29.90,East,100,0.0,238.7,96,6.76,,,0.89,VWS V14.01,2013-06-07 18:52:00,
2013-06-07 14:58:00,62.0,61.0,29.90,East,94,0.0,238.7,96,6.79,,,0.92,VWS V14.01,2013-06-07 18:58:00,
2013-06-07 15:04:00,62.0,61.0,29.89,East,94,0.0,238.7,96,6.81,,,0.94,VWS V14.01,2013-06-07 19:04:00,
2013-06-07 15:09:00,62.0,61.0,29.90,East,94,0.0,238.7,96,6.82,,,0.95,VWS V14.01,2013-06-07 19:09:00,
2013-06-07 15:15:00,61.9,60.8,29.89,SE,131,5.3,238.7,96,6.84,,,0.97,VWS V14.01,2013-06-07 19:15:00,
2013-06-07 15:20:00,61.9,60.9,29.89,ESE,107,0.0,238.7,96,6.85,,,0.98,VWS V14.01,2013-06-07 19:20:00,
2013-06-07 15:25:00,61.9,60.9,29.89,ESE,107,0.0,238.7,96,6.86,,,0.99,VWS V14.01,2013-06-07 19:25:00,
2013-06-07 15:31:00,61.8,60.8,29.89,ENE,63,0.0,238.7,96,6.87,,,1.00,VWS V14.01,2013-06-07 19:31:00,
2013-06-07 15:36:00,61.7,60.6,29.88,ENE,63,0.0,238.7,96,6.88,,,1.01,VWS V14.01,2013-06-07 19:36:00,
2013-06-07 15:42:00,61.7,60.7,29.88,NE,52,0.0,238.7,97,6.89,,,1.02,VWS V14.01,2013-06-07 19:42:00,
2013-06-07 15:47:00,61.7,60.7,29.87,NE,52,0.0,238.7,97,6.90,,,1.03,VWS V14.01,2013-06-07 19:47:00,
2013-06-07 15:52:00,61.7,60.7,29.87,NE,52,0.0,238.7,97,6.91,,,1.04,VWS V14.01,2013-06-07 19:52:00,
2013-06-07 15:57:00,61.6,60.6,29.87,ESE,115,0.0,238.7,97,6.92,,,1.05,VWS V14.01,2013-06-07 19:57:00,
2013-06-07 16:03:00,61.7,60.8,29.87,ESE,115,0.0,238.7,97,6.94,,,1.07,VWS V14.01,2013-06-07 20:03:00,
2013-06-07 16:08:00,61.6,60.7,29.87,ESE,115,0.0,238.7,97,6.95,,,1.08,VWS V14.01,2013-06-07 20:08:00,
2013-06-07 16:14:00,61.6,60.7,29.86,ESE,115,0.0,238.7,97,6.96,,,1.09,VWS V14.01,2013-06-07 20:14:00,
2013-06-07 16:20:00,61.5,60.6,29.87,East,97,0.0,238.7,97,6.97,,,1.10,VWS V14.01,2013-06-07 20:20:00,
2013-06-07 16:25:00,61.5,60.6,29.86,East,97,0.0,238.7,97,6.98,,,1.11,VWS V14.01,2013-06-07 20:25:00,
2013-06-07 16:31:00,61.5,60.6,29.86,East,97,0.0,238.7,97,6.99,,,1.12,VWS V14.01,2013-06-07 20:31:00,
2013-06-07 16:36:00,61.5,60.7,29.86,ESE,108,0.0,238.7,97,7.00,,,1.14,VWS V14.01,2013-06-07 20:36:00,
2013-06-07 16:42:00,61.5,60.7,29.86,ESE,108,0.0,238.7,97,7.02,,,1.15,VWS V14.01,2013-06-07 20:42:00,
2013-06-07 16:47:00,61.5,60.7,29.86,ESE,107,0.0,238.7,97,7.03,,,1.16,VWS V14.01,2013-06-07 20:47:00,
2013-06-07 16:52:00,61.5,60.7,29.85,ESE,107,0.0,238.7,97,7.05,,,1.18,VWS V14.01,2013-06-07 20:52:00,
2013-06-07 16:58:00,61.5,60.7,29.85,ESE,107,0.0,238.7,97,7.06,,,1.19,VWS V14.01,2013-06-07 20:58:00,
2013-06-07 17:03:00,61.5,60.7,29.85,ESE,107,0.0,238.7,97,7.08,,,1.21,VWS V14.01,2013-06-07 21:03:00,
2013-06-07 17:08:00,61.5,60.8,29.84,ESE,107,0.0,238.7,97,7.09,,,1.22,VWS V14.01,2013-06-07 21:08:00,
2013-06-07 17:14:00,61.5,60.8,29.84,ESE,107,0.0,238.7,97,7.10,,,1.23,VWS V14.01,2013-06-07 21:14:00,
2013-06-07 17:19:00,61.5,60.7,29.84,ESE,107,0.0,238.7,97,7.12,,,1.25,VWS V14.01,2013-06-07 21:19:00,
2013-06-07 17:25:00,61.4,60.7,29.84,East,86,0.0,238.7,97,7.13,,,1.26,VWS V14.01,2013-06-07 21:25:00,
2013-06-07 17:30:00,61.4,60.7,29.83,East,100,0.0,238.7,97,7.15,,,1.28,VWS V14.01,2013-06-07 21:30:00,
2013-06-07 17:36:00,61.4,60.7,29.83,East,79,0.0,238.7,97,7.17,,,1.30,VWS V14.01,2013-06-07 21:36:00,
2013-06-07 17:41:00,61.3,60.6,29.82,East,79,0.0,238.7,98,7.19,,,1.32,VWS V14.01,2013-06-07 21:41:00,
2013-06-07 17:47:00,61.2,60.5,29.82,ESE,117,4.4,238.7,98,7.20,,,1.33,VWS V14.01,2013-06-07 21:47:00,
2013-06-07 17:52:00,61.2,60.5,29.81,ESE,117,0.0,238.7,98,7.21,,,1.34,VWS V14.01,2013-06-07 21:52:00,
2013-06-07 17:58:00,61.2,60.5,29.81,ESE,117,0.0,238.7,98,7.21,,,1.34,VWS V14.01,2013-06-07 21:58:00,
2013-06-07 18:03:00,61.2,60.6,29.80,NE,49,0.0,238.7,98,7.22,,,1.35,VWS V14.01,2013-06-07 22:03:00,
2013-06-07 18:09:00,61.2,60.6,29.81,NNE,17,0.0,238.7,98,7.22,,,1.35,VWS V14.01,2013-06-07 22:09:00,
2013-06-07 18:14:00,61.1,60.5,29.81,NNE,17,0.0,238.7,98,7.23,,,1.36,VWS V14.01,2013-06-07 22:14:00,
2013-06-07 18:19:00,61.2,60.6,29.81,NNE,25,0.0,238.7,98,7.23,,,1.36,VWS V14.01,2013-06-07 22:19:00,
2013-06-07 18:25:00,61.3,60.7,29.82,NNE,25,0.0,238.7,98,7.23,,,1.36,VWS V14.01,2013-06-07 22:25:00,
2013-06-07 18:31:00,61.3,60.7,29.81,NNE,25,0.0,238.7,98,7.23,,,1.36,VWS V14.01,2013-06-07 22:31:00,
2013-06-07 18:36:00,61.4,60.7,29.81,NNE,21,3.0,238.7,98,7.23,,,1.36,VWS V14.01,2013-06-07 22:36:00,
2013-06-07 18:42:00,61.3,60.6,29.81,NNE,21,0.0,238.7,98,7.23,,,1.36,VWS V14.01,2013-06-07 22:42:00,
2013-06-07 18:48:00,61.2,60.5,29.81,NNE,21,0.0,238.7,98,7.23,,,1.36,VWS V14.01,2013-06-07 22:48:00,
2013-06-07 18:54:00,61.1,60.4,29.81,NNE,21,0.0,238.7,98,7.24,,,1.37,VWS V14.01,2013-06-07 22:54:00,
2013-06-07 18:59:00,61.0,60.2,29.81,NNE,21,0.0,238.7,97,7.24,,,1.37,VWS V14.01,2013-06-07 22:59:00,
2013-06-07 19:04:00,60.9,60.2,29.81,SSE,148,0.0,238.7,97,7.25,,,1.38,VWS V14.01,2013-06-07 23:04:00,
2013-06-07 19:10:00,60.8,60.1,29.80,SSE,148,0.0,238.7,98,7.25,,,1.38,VWS V14.01,2013-06-07 23:10:00,
2013-06-07 19:15:00,60.6,59.9,29.80,SSE,148,0.0,238.7,98,7.26,,,1.39,VWS V14.01,2013-06-07 23:15:00,
2013-06-07 19:21:00,60.5,59.9,29.80,SSE,148,0.0,238.7,98,7.27,,,1.40,VWS V14.01,2013-06-07 23:21:00,
2013-06-07 19:27:00,60.5,59.9,29.80,SSE,148,0.0,238.7,98,7.28,,,1.41,VWS V14.01,2013-06-07 23:27:00,
2013-06-07 19:32:00,60.5,59.8,29.80,East,83,5.5,238.7,98,7.31,,,1.44,VWS V14.01,2013-06-07 23:32:00,
2013-06-07 19:38:00,60.4,59.8,29.80,ENE,70,0.0,238.7,98,7.33,,,1.46,VWS V14.01,2013-06-07 23:38:00,
2013-06-07 19:43:00,60.5,59.9,29.80,NE,52,0.0,238.7,98,7.35,,,1.48,VWS V14.01,2013-06-07 23:43:00,
2013-06-07 19:48:00,60.4,59.8,29.80,NE,52,0.0,238.7,98,7.36,,,1.49,VWS V14.01,2013-06-07 23:48:00,
2013-06-07 19:54:00,60.4,59.8,29.79,NE,52,0.0,238.7,98,7.39,,,1.52,VWS V14.01,2013-06-07 23:54:00,
2013-06-07 19:59:00,60.2,59.6,29.79,ESE,121,0.0,238.7,98,7.41,,,1.54,VWS V14.01,2013-06-07 23:59:00,
2013-06-07 20:04:00,60.3,59.7,29.79,ESE,121,0.0,238.7,98,7.42,,,1.55,VWS V14.01,2013-06-08 00:04:00,
2013-06-07 20:10:00,60.2,59.6,29.79,ESE,121,0.0,238.7,98,7.42,,,1.55,VWS V14.01,2013-06-08 00:10:00,
2013-06-07 20:16:00,60.2,59.6,29.79,ESE,121,0.0,238.7,98,7.43,,,1.56,VWS V14.01,2013-06-08 00:16:00,
2013-06-07 20:21:00,60.2,59.7,29.79,ESE,121,0.0,238.7,98,7.43,,,1.56,VWS V14.01,2013-06-08 00:21:00,
2013-06-07 20:26:00,60.2,59.7,29.79,ESE,121,0.0,238.7,98,7.43,,,1.56,VWS V14.01,2013-06-08 00:26:00,
2013-06-07 20:33:00,60.1,59.6,29.79,ESE,121,0.0,238.7,98,7.44,,,1.57,VWS V14.01,2013-06-08 00:33:00,
2013-06-07 20:38:00,60.1,59.6,29.78,ESE,121,0.0,238.7,98,7.45,,,1.58,VWS V14.01,2013-06-08 00:38:00,
2013-06-07 20:43:00,60.0,59.5,29.78,ESE,108,0.0,238.7,98,7.45,,,1.58,VWS V14.01,2013-06-08 00:43:00,
2013-06-07 20:48:00,60.0,59.5,29.77,ESE,108,0.0,238.7,98,7.45,,,1.58,VWS V14.01,2013-06-08 00:48:00,
2013-06-07 20:54:00,60.0,59.5,29.78,ESE,108,0.0,238.7,98,7.46,,,1.59,VWS V14.01,2013-06-08 00:54:00,
2013-06-07 20:59:00,59.9,59.4,29.78,ENE,68,0.0,238.7,98,7.46,,,1.59,VWS V14.01,2013-06-08 00:59:00,
2013-06-07 21:05:00,59.9,59.4,29.78,ENE,68,0.0,238.7,98,7.47,,,1.60,VWS V14.01,2013-06-08 01:05:00,
2013-06-07 21:10:00,59.8,59.3,29.77,East,101,0.0,238.7,98,7.48,,,1.61,VWS V14.01,2013-06-08 01:10:00,
2013-06-07 21:15:00,59.8,59.3,29.77,East,101,0.0,238.7,98,7.49,,,1.62,VWS V14.01,2013-06-08 01:15:00,
2013-06-07 21:20:00,59.8,59.3,29.78,East,101,0.0,238.7,98,7.50,,,1.63,VWS V14.01,2013-06-08 01:20:00,
2013-06-07 21:26:00,59.7,59.2,29.77,ESE,108,0.0,238.7,98,7.50,,,1.63,VWS V14.01,2013-06-08 01:26:00,
2013-06-07 21:32:00,59.6,59.1,29.77,ESE,108,0.0,238.7,98,7.51,,,1.64,VWS V14.01,2013-06-08 01:32:00,
2013-06-07 21:38:00,59.6,59.1,29.76,ESE,108,0.0,238.7,98,7.55,,,1.68,VWS V14.01,2013-06-08 01:38:00,
2013-06-07 21:43:00,59.5,59.0,29.78,ESE,108,0.0,238.7,98,7.58,,,1.71,VWS V14.01,2013-06-08 01:43:00,
2013-06-07 21:48:00,59.4,59.0,29.78,ESE,108,0.0,238.7,98,7.60,,,1.73,VWS V14.01,2013-06-08 01:48:00,
2013-06-07 21:54:00,59.5,59.0,29.78,ESE,108,0.0,238.7,98,7.63,,,1.76,VWS V14.01,2013-06-08 01:54:00,
2013-06-07 21:59:00,59.5,59.0,29.78,ESE,108,0.0,238.7,98,7.67,,,1.80,VWS V14.01,2013-06-08 01:59:00,
2013-06-07 22:04:00,59.4,58.9,29.77,ESE,108,0.0,238.7,98,7.71,,,1.84,VWS V14.01,2013-06-08 02:04:00,
2013-06-07 22:09:00,59.4,59.0,29.77,ESE,108,0.0,238.7,98,7.73,,,1.86,VWS V14.01,2013-06-08 02:09:00,
2013-06-07 22:15:00,59.2,58.8,29.76,ESE,108,0.0,238.7,98,7.74,,,1.87,VWS V14.01,2013-06-08 02:15:00,
2013-06-07 22:20:00,59.1,58.7,29.76,ESE,108,0.0,238.7,98,7.76,,,1.89,VWS V14.01,2013-06-08 02:20:00,
2013-06-07 22:26:00,59.0,58.6,29.76,ESE,108,0.0,238.7,99,7.77,,,1.90,VWS V14.01,2013-06-08 02:26:00,
2013-06-07 22:31:00,58.9,58.5,29.76,ESE,117,0.0,238.7,99,7.77,,,1.90,VWS V14.01,2013-06-08 02:31:00,
2013-06-07 22:37:00,58.8,58.4,29.75,ESE,117,0.0,238.7,99,7.77,,,1.90,VWS V14.01,2013-06-08 02:37:00,
2013-06-07 22:42:00,58.7,58.3,29.74,ESE,117,0.0,238.7,99,7.77,,,1.90,VWS V14.01,2013-06-08 02:42:00,
2013-06-07 22:48:00,58.5,58.1,29.75,ESE,117,0.0,238.7,99,7.79,,,1.92,VWS V14.01,2013-06-08 02:48:00,
2013-06-07 22:53:00,58.4,58.1,29.75,ESE,117,0.0,238.7,99,7.83,,,1.96,VWS V14.01,2013-06-08 02:53:00,
2013-06-07 22:58:00,58.4,58.1,29.75,ESE,117,0.0,238.7,99,7.87,,,2.00,VWS V14.01,2013-06-08 02:58:00,
2013-06-07 23:04:00,58.2,57.8,29.74,ESE,117,0.0,238.7,99,7.88,,,2.01,VWS V14.01,2013-06-08 03:04:00,
2013-06-07 23:09:00,58.0,57.7,29.72,ESE,117,0.0,238.7,99,7.91,,,2.04,VWS V14.01,2013-06-08 03:09:00,
2013-06-07 23:15:00,57.9,57.7,29.72,ESE,117,0.0,238.7,99,7.93,,,2.06,VWS V14.01,2013-06-08 03:15:00,
2013-06-07 23:20:00,57.9,57.7,29.73,ESE,117,0.0,238.7,99,7.96,,,2.09,VWS V14.01,2013-06-08 03:20:00,
2013-06-07 23:26:00,57.9,57.7,29.73,ESE,117,0.0,238.7,99,8.03,,,2.16,VWS V14.01,2013-06-08 03:26:00,
2013-06-07 23:31:00,57.8,57.5,29.72,ESE,117,0.0,238.7,99,8.09,,,2.22,VWS V14.01,2013-06-08 03:31:00,
2013-06-07 23:37:00,57.7,57.5,29.72,ESE,117,0.0,238.7,99,8.15,,,2.28,VWS V14.01,2013-06-08 03:37:00,
2013-06-07 23:43:00,57.6,57.3,29.72,ESE,117,0.0,238.7,99,8.20,,,2.33,VWS V14.01,2013-06-08 03:43:00,
2013-06-07 23:48:00,57.4,57.2,29.72,ESE,117,0.0,238.7,99,8.21,,,2.34,VWS V14.01,2013-06-08 03:48:00,
2013-06-07 23:53:00,57.3,57.0,29.72,ESE,117,0.0,238.7,99,8.22,,,2.35,VWS V14.01,2013-06-08 03:53:00,
2013-06-07 23:59:00,57.2,57.0,29.72,ESE,117,0.0,238.7,99,8.22,,,2.35,VWS V14.01,2013-06-08 03:59:00,